Time;durP1;ratioP1;P1;durP2;ratioP2;P2;SDS_P1;SDS_P2;PMS_P1;PMS_P2;Temp;Humidity;BMP_temperature;BMP_pressure;BME280_temperature;BME280_humidity;BME280_pressure;Samples;Min_cycle;Max_cycle;Signal;HPM_P1;HPM_P2
2021/12/03 00:02:04;;;;;;;15.13;2.13;;;;;;;9.75;100.00;61843.00;5091371;28;20959;-77
2021/12/03 00:04:47;;;;;;;8.33;1.53;;;;;;;12.08;100.00;62081.47;5091179;28;20510;-76
2021/12/03 00:07:16;;;;;;;2.80;1.10;;;;;;;11.18;100.00;61995.13;5091330;28;20763;-76
2021/12/03 00:09:51;;;;;;;6.10;2.90;;;;;;;10.90;100.00;61958.56;5092816;28;20195;-77
2021/12/03 00:12:20;;;;;;;5.67;2.73;;;;;;;10.85;100.00;61960.31;5091266;28;20217;-78
2021/12/03 00:14:49;;;;;;;5.67;3.93;;;;;;;9.03;100.00;61764.50;5073178;28;20722;-78
2021/12/03 00:17:18;;;;;;;7.60;4.03;;;;;;;9.30;100.00;61793.38;5073085;28;20963;-79
2021/12/03 00:19:51;;;;;;;6.93;4.60;;;;;;;8.69;100.00;61723.06;5091106;28;20610;-77
2021/12/03 00:22:20;;;;;;;6.37;4.27;;;;;;;7.10;100.00;61556.25;5091425;28;20442;-78
2021/12/03 00:24:55;;;;;;;28.27;6.67;;;;;;;8.08;100.00;61660.38;5091116;28;20457;-78
2021/12/03 00:27:25;;;;;;;7.10;4.10;;;;;;;7.67;100.00;61617.66;5091186;28;20997;-79
2021/12/03 00:29:52;;;;;;;4.30;1.30;;;;;;;8.61;100.00;61722.13;5072891;28;20429;-76
2021/12/03 00:32:19;;;;;;;2.63;1.30;;;;;;;10.46;100.00;61913.97;5090579;28;20499;-78
2021/12/03 00:35:22;;;;;;;6.83;4.03;;;;;;;9.86;100.00;61852.25;5090726;28;20444;-78
2021/12/03 00:37:53;;;;;;;7.23;3.97;;;;;;;9.04;100.00;61765.56;5091165;28;20494;-77
2021/12/03 00:40:24;;;;;;;6.30;3.90;;;;;;;8.61;100.00;61719.59;5090442;28;20497;-76
2021/12/03 00:43:00;;;;;;;9.03;3.90;;;;;;;8.19;100.00;61672.66;5091018;28;20444;-77
2021/12/03 00:45:31;;;;;;;6.37;3.83;;;;;;;7.94;100.00;61647.97;5091090;28;20429;-78
2021/12/03 00:48:02;;;;;;;7.60;3.93;;;;;;;7.77;100.00;61632.34;5090755;28;20433;-77
2021/12/03 00:50:33;;;;;;;6.67;3.90;;;;;;;7.45;100.00;61596.69;5072936;28;20445;-79
2021/12/03 00:53:02;;;;;;;8.47;4.03;;;;;;;7.31;100.00;61579.22;5091366;28;20442;-78
2021/12/03 00:55:33;;;;;;;7.60;4.07;;;;;;;6.92;100.00;61537.59;5097490;28;20464;-76
2021/12/03 00:58:01;;;;;;;7.20;4.30;;;;;;;6.50;100.00;61492.78;5093319;28;20434;-77
2021/12/03 01:00:33;;;;;;;7.03;4.00;;;;;;;7.24;100.00;61571.75;5094284;28;20476;-78
2021/12/03 01:03:02;;;;;;;9.00;4.17;;;;;;;7.13;100.00;61565.06;5094532;28;20458;-78
2021/12/03 01:05:33;;;;;;;5.13;3.00;;;;;;;6.44;100.00;61488.91;5095103;28;20487;-76
2021/12/03 01:08:10;;;;;;;6.97;3.70;;;;;;;7.68;100.00;61618.19;5101696;28;20440;-75
2021/12/03 01:10:39;;;;;;;5.80;3.87;;;;;;;6.60;100.00;61505.97;5095651;28;20830;-76
2021/12/03 01:13:08;;;;;;;5.40;3.23;;;;;;;6.82;100.00;61531.97;5093873;28;20503;-76
2021/12/03 01:15:40;;;;;;;5.87;3.33;;;;;;;8.01;100.00;61658.50;5093854;28;20499;-77
2021/12/03 01:18:12;;;;;;;7.03;3.53;;;;;;;7.98;100.00;61654.78;5094826;28;20424;-76
2021/12/03 01:20:44;;;;;;;5.27;3.40;;;;;;;7.92;100.00;61648.38;5093669;28;20484;-76
2021/12/03 01:23:12;;;;;;;5.20;3.60;;;;;;;7.83;100.00;61639.28;5094189;28;20452;-77
2021/12/03 01:25:41;;;;;;;8.57;2.40;;;;;;;8.33;100.00;61692.72;5093964;28;20445;-79
2021/12/03 01:28:11;;;;;;;5.93;3.93;;;;;;;6.60;100.00;61511.03;5093765;28;20530;-77
2021/12/03 01:30:39;;;;;;;9.47;4.07;;;;;;;7.49;100.00;61598.44;5097609;28;20433;-76
2021/12/03 01:33:07;;;;;;;7.50;4.37;;;;;;;7.68;100.00;61623.81;5093988;28;20469;-78
2021/12/03 01:35:35;;;;;;;5.63;3.40;;;;;;;7.41;100.00;61592.41;5093779;28;20788;-78
2021/12/03 01:38:07;;;;;;;6.67;3.90;;;;;;;7.41;100.00;61589.34;5093789;28;20449;-78
2021/12/03 01:40:41;;;;;;;6.77;4.00;;;;;;;7.08;100.00;61554.13;5093625;28;20481;-77
2021/12/03 01:43:21;;;;;;;8.30;3.80;;;;;;;7.05;100.00;61551.47;5094284;28;20524;-80
2021/12/03 01:45:57;;;;;;;6.00;3.53;;;;;;;7.08;100.00;61554.66;5093558;28;20525;-81
2021/12/03 01:48:32;;;;;;;1.40;1.30;;;;;;;8.03;100.00;61655.56;5093750;28;20503;-76
2021/12/03 01:51:01;;;;;;;6.17;2.13;;;;;;;9.89;100.00;61856.00;5093545;28;20421;-79
2021/12/03 01:53:34;;;;;;;2.13;1.10;;;;;;;11.41;100.00;62017.78;5092834;28;20538;-76
2021/12/03 01:56:10;;;;;;;0.90;0.90;;;;;;;11.18;100.00;61995.69;5092861;28;20449;-77
2021/12/03 01:58:37;;;;;;;1.70;0.90;;;;;;;12.34;100.00;62119.56;5093877;28;20437;-76
2021/12/03 02:01:09;;;;;;;2.00;0.93;;;;;;;12.54;100.00;62135.94;5093260;28;20234;-76
2021/12/03 02:03:40;;;;;;;1.27;0.70;;;;;;;12.37;100.00;62122.81;5092905;28;20199;-77
2021/12/03 02:06:09;;;;;;;3.20;1.03;;;;;;;12.64;100.00;62146.13;5075211;28;20246;-79
2021/12/03 02:08:39;;;;;;;1.30;1.10;;;;;;;12.67;100.00;62154.47;5092901;28;20195;-78
2021/12/03 02:11:07;;;;;;;2.57;0.80;;;;;;;13.07;100.00;62189.22;5093109;28;20272;-77
2021/12/03 02:13:34;;;;;;;3.70;1.07;;;;;;;12.88;100.00;62171.34;5092598;28;20273;-76
2021/12/03 02:16:05;;;;;;;1.93;1.00;;;;;;;13.02;100.00;62186.41;5092487;28;20211;-80
2021/12/03 02:18:37;;;;;;;1.53;0.90;;;;;;;13.15;100.00;62200.38;5092922;28;20650;-77
2021/12/03 02:21:07;;;;;;;4.17;1.30;;;;;;;13.13;100.00;62200.78;5093005;28;20231;-78
2021/12/03 02:23:37;;;;;;;3.17;1.43;;;;;;;13.02;100.00;62186.41;5092865;28;20682;-77
2021/12/03 02:26:05;;;;;;;1.40;1.20;;;;;;;13.05;100.00;62192.72;5092795;28;20585;-78
2021/12/03 02:28:39;;;;;;;1.27;1.17;;;;;;;12.76;100.00;62161.03;5092611;28;20247;-79
2021/12/03 02:31:08;;;;;;;2.33;1.60;;;;;;;12.35;100.00;62115.53;5092163;28;20282;-77
2021/12/03 02:33:36;;;;;;;2.60;1.00;;;;;;;11.79;100.00;62058.03;5092478;28;20199;-79
2021/12/03 02:36:12;;;;;;;3.90;1.17;;;;;;;12.80;100.00;62168.41;5092396;28;20196;-77
2021/12/03 02:38:40;;;;;;;3.40;1.10;;;;;;;12.89;100.00;62172.44;5092337;28;20203;-78
2021/12/03 02:41:15;;;;;;;5.20;2.33;;;;;;;12.70;100.00;62153.09;5070544;28;20232;-79
2021/12/03 02:43:44;;;;;;;3.90;1.23;;;;;;;12.82;100.00;62170.03;5071954;28;20226;-77
2021/12/03 02:46:11;;;;;;;1.10;1.00;;;;;;;11.82;100.00;62061.22;5071970;28;20200;-77
2021/12/03 02:48:40;;;;;;;3.33;1.10;;;;;;;11.69;100.00;62054.94;5071593;28;20207;-77
2021/12/03 02:51:11;;;;;;;2.13;1.20;;;;;;;12.73;100.00;62158.88;5073619;28;20554;-78
2021/12/03 02:53:40;;;;;;;1.53;1.37;;;;;;;12.39;100.00;62121.84;5072256;28;20211;-78
2021/12/03 02:56:09;;;;;;;4.47;1.40;;;;;;;11.95;100.00;62072.63;5071777;28;20192;-77
2021/12/03 02:58:43;;;;;;;2.37;1.70;;;;;;;12.08;100.00;62086.56;5071695;28;20196;-78
2021/12/03 03:01:16;;;;;;;2.60;1.80;;;;;;;11.87;100.00;62069.16;5072061;28;20293;-78
2021/12/03 03:03:48;;;;;;;4.87;1.97;;;;;;;10.29;100.00;61900.31;5077657;28;20192;-78
2021/12/03 03:06:28;;;;;;;3.93;2.30;;;;;;;11.23;100.00;61992.84;5071575;28;20204;-78
2021/12/03 03:09:08;;;;;;;6.53;2.10;;;;;;;10.58;100.00;61926.81;5071782;28;20245;-78
2021/12/03 03:11:45;;;;;;;3.07;2.13;;;;;;;10.64;100.00;61933.25;5071358;28;20207;-78
2021/12/03 03:14:14;;;;;;;3.80;1.80;;;;;;;10.58;100.00;61926.81;5071940;28;20652;-78
2021/12/03 03:16:44;;;;;;;5.50;2.20;;;;;;;10.37;100.00;61904.31;5073372;28;20465;-77
2021/12/03 03:19:13;;;;;;;7.17;2.00;;;;;;;10.37;100.00;61904.31;5078302;28;20262;-78
2021/12/03 03:21:41;;;;;;;4.97;3.17;;;;;;;10.32;100.00;61904.06;5071346;28;20282;-77
2021/12/03 03:24:10;;;;;;;2.53;1.93;;;;;;;8.42;100.00;61702.34;5071814;28;20446;-77
2021/12/03 03:26:45;;;;;;;7.93;2.50;;;;;;;9.40;100.00;61800.47;5071549;28;20196;-77
2021/12/03 03:29:16;;;;;;;3.30;2.30;;;;;;;9.15;100.00;61777.34;5071336;28;20480;-78
2021/12/03 03:31:44;;;;;;;3.53;2.30;;;;;;;9.29;100.00;61792.31;5070406;28;20438;-79
2021/12/03 03:34:14;;;;;;;6.20;2.40;;;;;;;9.15;100.00;61774.81;5071283;28;20526;-76
2021/12/03 03:36:45;;;;;;;4.70;2.60;;;;;;;7.54;100.00;61603.78;5071432;28;20439;-76
2021/12/03 03:39:18;;;;;;;3.40;2.00;;;;;;;9.11;100.00;61775.06;5071992;28;20925;-77
2021/12/03 03:41:47;;;;;;;3.80;2.53;;;;;;;9.07;100.00;61770.78;5085562;28;20485;-78
2021/12/03 03:44:19;;;;;;;6.40;2.33;;;;;;;8.09;100.00;61666.53;5092034;28;20487;-77
2021/12/03 03:46:48;;;;;;;3.50;2.30;;;;;;;8.56;100.00;61711.69;5091749;28;20453;-78
2021/12/03 03:49:21;;;;;;;4.27;2.47;;;;;;;8.99;100.00;61762.78;5073468;28;20469;-78
2021/12/03 03:52:04;;;;;;;4.70;2.43;;;;;;;8.52;100.00;61709.97;5091576;28;20475;-78
2021/12/03 03:54:31;;;;;;;59.70;26.70;;;;;;;8.66;100.00;61727.47;5091542;28;20520;-78
2021/12/03 03:57:02;;;;;;;6.53;3.40;;;;;;;8.64;100.00;61725.34;5090926;28;20457;-77
2021/12/03 03:59:32;;;;;;;4.33;3.07;;;;;;;8.56;100.00;61716.78;5073338;28;20537;-75
2021/12/03 04:04:42;;;;;;;4.03;2.93;;;;;;;8.18;100.00;61671.06;5090096;28;20434;-78
2021/12/03 04:07:13;;;;;;;4.33;2.33;;;;;;;7.09;100.00;61555.72;5091191;28;20445;-79
2021/12/03 04:09:41;;;;;;;10.63;2.80;;;;;;;7.01;100.00;61552.25;5091136;28;20499;-76
2021/12/03 04:12:10;;;;;;;3.07;2.70;;;;;;;7.44;100.00;61597.63;5092039;28;20430;-78
2021/12/03 04:14:38;;;;;;;4.03;2.90;;;;;;;6.60;100.00;61508.50;5091992;28;20853;-78
2021/12/03 04:17:05;;;;;;;10.20;2.60;;;;;;;7.04;100.00;61560.53;5090207;28;20503;-75
2021/12/03 04:19:35;;;;;;;3.37;2.40;;;;;;;8.24;100.00;61683.09;5091180;28;20445;-78
2021/12/03 04:22:03;;;;;;;3.67;2.73;;;;;;;7.98;100.00;61649.69;5091617;28;20859;-78
2021/12/03 04:24:32;;;;;;;6.27;2.60;;;;;;;8.06;100.00;61658.78;5091847;28;20514;-79
2021/12/03 04:27:01;;;;;;;3.33;2.20;;;;;;;6.71;100.00;61515.72;5090304;28;20473;-80
2021/12/03 04:29:29;;;;;;;4.20;2.70;;;;;;;6.55;100.00;61505.69;5089121;28;20983;-76
2021/12/03 04:31:58;;;;;;;4.70;3.20;;;;;;;6.13;100.00;61450.78;5092908;28;20522;-76
2021/12/03 04:34:28;;;;;;;5.00;2.43;;;;;;;6.77;100.00;61517.06;5094575;28;20457;-78
2021/12/03 04:36:55;;;;;;;3.93;2.70;;;;;;;7.47;100.00;61595.75;5094908;28;20982;-79
2021/12/03 04:39:31;;;;;;;3.63;2.80;;;;;;;6.38;100.00;61490.63;5094318;28;20503;-77
2021/12/03 04:42:01;;;;;;;5.10;3.20;;;;;;;7.68;100.00;61620.72;5072746;28;20511;-78
2021/12/03 04:44:29;;;;;;;7.20;2.60;;;;;;;6.99;100.00;61541.97;5075006;28;20430;-75
2021/12/03 04:46:57;;;;;;;4.87;3.03;;;;;;;6.41;100.00;61490.75;5074734;28;20435;-76
2021/12/03 04:49:25;;;;;;;5.90;3.17;;;;;;;6.46;100.00;61493.56;5074523;28;20446;-77
2021/12/03 04:51:52;;;;;;;4.13;3.00;;;;;;;6.90;100.00;61539.97;5073694;28;20520;-77
2021/12/03 04:54:22;;;;;;;4.43;3.07;;;;;;;7.15;100.00;61564.66;5073857;28;20798;-77
2021/12/03 04:57:01;;;;;;;4.70;3.17;;;;;;;7.80;100.00;61631.00;5073757;28;20874;-76
2021/12/03 04:59:31;;;;;;;5.93;2.83;;;;;;;7.38;100.00;61586.69;5074098;28;20438;-76
2021/12/03 05:01:59;;;;;;;4.57;2.33;;;;;;;7.66;100.00;61619.13;5074003;28;20485;-80
2021/12/03 05:04:35;;;;;;;6.47;3.10;;;;;;;6.51;100.00;61496.38;5073984;28;20447;-76
2021/12/03 05:07:28;;;;;;;6.37;3.00;;;;;;;7.52;100.00;61606.72;5073850;28;20454;-78
2021/12/03 05:09:57;;;;;;;5.37;2.80;;;;;;;7.76;100.00;61626.19;5075143;28;20435;-76
2021/12/03 05:12:31;;;;;;;3.00;2.53;;;;;;;7.92;100.00;61643.28;5076846;28;20844;-76
2021/12/03 05:15:16;;;;;;;5.77;3.30;;;;;;;7.91;100.00;61642.22;5074439;28;20436;-79
2021/12/03 05:17:46;;;;;;;7.20;3.20;;;;;;;6.74;100.00;61529.03;5073629;28;20853;-77
2021/12/03 05:20:16;;;;;;;6.10;4.17;;;;;;;7.76;100.00;61631.28;5073447;28;21001;-79
2021/12/03 05:22:45;;;;;;;4.03;2.73;;;;;;;7.82;100.00;61635.16;5074133;28;20490;-78
2021/12/03 05:25:12;;;;;;;5.10;2.90;;;;;;;6.75;100.00;61519.44;5072395;28;20801;-77
2021/12/03 05:27:41;;;;;;;7.77;3.50;;;;;;;7.87;100.00;61640.50;5074538;28;20496;-77
2021/12/03 05:30:22;;;;;;;7.87;3.90;;;;;;;7.81;100.00;61631.56;5084206;28;20442;-78
2021/12/03 05:32:52;;;;;;;5.13;3.67;;;;;;;7.73;100.00;61628.06;5076769;28;20434;-78
2021/12/03 05:35:20;;;;;;;8.97;5.00;;;;;;;7.82;100.00;61632.59;5075355;28;20438;-76
2021/12/03 05:37:50;;;;;;;16.23;7.80;;;;;;;7.72;100.00;61622.47;5073588;28;20534;-75
2021/12/03 05:40:20;;;;;;;9.00;2.50;;;;;;;9.04;100.00;61765.56;5075796;28;20439;-77
2021/12/03 05:42:49;;;;;;;4.80;1.80;;;;;;;9.42;100.00;61803.13;5093019;28;21011;-77
2021/12/03 05:45:24;;;;;;;7.17;2.83;;;;;;;9.57;100.00;61823.75;5093633;28;20433;-79
2021/12/03 05:47:51;;;;;;;8.97;3.23;;;;;;;7.46;100.00;61597.78;5094017;28;20441;-77
2021/12/03 05:50:43;;;;;;;3.03;1.97;;;;;;;9.83;100.00;61852.13;5091501;28;20434;-76
2021/12/03 05:53:16;;;;;;;11.60;6.90;;;;;;;9.53;100.00;61814.38;5093819;28;20482;-78
2021/12/03 05:55:43;;;;;;;5.40;2.73;;;;;;;8.40;100.00;61694.59;5093134;28;20536;-76
2021/12/03 05:58:11;;;;;;;1.30;1.20;;;;;;;10.69;100.00;61938.06;5093127;28;20446;-77
2021/12/03 06:00:44;;;;;;;6.60;3.10;;;;;;;10.67;100.00;61936.47;5093165;28;20949;-78
2021/12/03 06:03:12;;;;;;;6.60;3.27;;;;;;;10.26;100.00;61892.00;5093133;28;20469;-78
2021/12/03 06:05:40;;;;;;;5.67;3.60;;;;;;;9.95;100.00;61861.88;5093667;28;20456;-79
2021/12/03 06:08:07;;;;;;;5.23;3.40;;;;;;;9.89;100.00;61855.44;5092930;28;20525;-77
2021/12/03 06:10:38;;;;;;;6.20;3.70;;;;;;;9.58;100.00;61819.75;5093169;28;20441;-79
2021/12/03 06:13:06;;;;;;;5.63;2.80;;;;;;;9.45;100.00;61805.81;5092632;28;20678;-76
2021/12/03 06:15:33;;;;;;;10.33;4.83;;;;;;;9.33;100.00;61794.06;5092796;28;20441;-78
2021/12/03 06:18:02;;;;;;;11.53;5.63;;;;;;;7.95;100.00;61646.50;5092659;28;20457;-76
2021/12/03 06:20:29;;;;;;;6.87;3.77;;;;;;;8.48;100.00;61703.16;5093323;28;20434;-77
2021/12/03 06:22:57;;;;;;;6.87;3.67;;;;;;;8.59;100.00;61714.91;5093007;28;20528;-79
2021/12/03 06:25:28;;;;;;;6.70;3.10;;;;;;;9.81;100.00;61841.81;5092377;28;20828;-78
2021/12/03 06:27:57;;;;;;;6.63;3.10;;;;;;;8.74;100.00;61722.78;5092544;28;20473;-76
2021/12/03 06:30:29;;;;;;;6.33;3.60;;;;;;;8.67;100.00;61725.47;5099987;28;20454;-77
2021/12/03 06:32:57;;;;;;;10.87;6.47;;;;;;;9.60;100.00;61821.88;5093035;28;20551;-80
2021/12/03 06:35:29;;;;;;;4.53;1.90;;;;;;;10.92;100.00;61965.81;5093149;28;20465;-77
2021/12/03 06:37:58;;;;;;;8.30;3.10;;;;;;;11.18;100.00;61990.03;5092727;28;20445;-79
2021/12/03 06:40:27;;;;;;;3.97;2.50;;;;;;;11.92;100.00;62068.84;5092380;28;20236;-76
2021/12/03 06:42:55;;;;;;;11.00;4.83;;;;;;;11.49;100.00;62023.28;5092370;28;20647;-78
2021/12/03 06:45:22;;;;;;;5.03;2.23;;;;;;;11.63;100.00;62041.38;5092234;28;20498;-77
2021/12/03 06:47:50;;;;;;;5.67;1.30;;;;;;;11.65;100.00;62045.53;5092482;28;20639;-76
2021/12/03 06:50:19;;;;;;;5.57;2.50;;;;;;;11.28;100.00;62003.31;5093057;28;20208;-77
2021/12/03 06:52:53;;;;;;;8.30;4.30;;;;;;;11.67;100.00;62040.06;5092512;28;20188;-80
2021/12/03 06:55:25;;;;;;;54.07;23.07;;;;;;;11.44;100.00;62023.00;5092820;28;20201;-78
2021/12/03 06:57:56;;;;;;;16.90;6.80;;;;;;;11.31;100.00;62007.06;5092509;28;20742;-78
2021/12/03 07:03:07;;;;;;;12.07;6.57;;;;;;;10.85;100.00;61955.75;5089909;28;20297;-78
2021/12/03 07:05:39;;;;;;;15.43;4.90;;;;;;;11.09;100.00;61982.94;5091981;28;20388;-80
2021/12/03 07:08:10;;;;;;;3.77;2.03;;;;;;;9.83;100.00;61849.03;5092438;28;20196;-77
2021/12/03 07:10:42;;;;;;;6.17;2.93;;;;;;;10.78;100.00;61948.25;5092558;28;20208;-78
2021/12/03 07:13:20;;;;;;;5.03;2.40;;;;;;;12.52;100.00;62133.78;5091827;28;20212;-79
2021/12/03 07:15:54;;;;;;;3.20;1.90;;;;;;;12.56;100.00;62137.53;5092073;28;20203;-79
2021/12/03 07:18:22;;;;;;;1.53;1.37;;;;;;;11.79;100.00;62056.00;5091701;28;20527;-77
2021/12/03 07:20:50;;;;;;;7.07;2.27;;;;;;;11.85;100.00;62067.00;5092318;28;20202;-78
2021/12/03 07:23:19;;;;;;;6.67;2.53;;;;;;;13.03;100.00;62187.47;5072444;28;20234;-80
2021/12/03 07:25:48;;;;;;;4.43;1.97;;;;;;;12.05;100.00;62083.34;5091066;28;20215;-77
2021/12/03 07:28:18;;;;;;;3.50;1.77;;;;;;;12.36;100.00;62119.16;5090681;28;20224;-76
2021/12/03 07:30:51;;;;;;;3.83;1.30;;;;;;;13.38;100.00;62225.06;5090792;28;20241;-77
2021/12/03 07:33:19;;;;;;;6.07;2.27;;;;;;;12.44;100.00;62125.19;5090173;28;20561;-77
2021/12/03 07:35:48;;;;;;;2.90;1.60;;;;;;;13.39;100.00;62226.13;5090429;28;20295;-80
2021/12/03 07:38:17;;;;;;;5.53;1.90;;;;;;;13.51;100.00;62244.16;5092380;28;20670;-76
2021/12/03 07:40:49;;;;;;;7.90;1.80;;;;;;;13.49;100.00;62239.44;5098680;28;20602;-76
2021/12/03 07:43:19;;;;;;;5.00;1.70;;;;;;;13.58;100.00;62251.69;5091263;28;20341;-76
2021/12/03 07:45:50;;;;;;;8.53;1.80;;;;;;;13.76;100.00;62265.38;5091942;28;20204;-78
2021/12/03 07:48:21;;;;;;;8.93;2.63;;;;;;;14.01;100.00;62292.22;5073565;28;20312;-78
2021/12/03 07:50:51;;;;;;;5.80;1.63;;;;;;;14.03;100.00;62299.50;5091533;28;20686;-79
2021/12/03 07:53:19;;;;;;;8.73;3.57;;;;;;;13.20;100.00;62205.75;5092655;28;20195;-78
2021/12/03 07:55:52;;;;;;;9.10;1.90;;;;;;;14.38;100.00;62332.56;5092068;28;20199;-77
2021/12/03 07:58:21;;;;;;;7.10;2.63;;;;;;;13.40;100.00;62227.75;5093307;28;20261;-79
2021/12/03 08:01:02;;;;;;;4.10;1.80;;;;;;;14.42;100.00;62338.34;5092285;28;20199;-78
2021/12/03 08:03:32;;;;;;;6.27;2.67;;;;;;;13.42;100.00;62234.50;5092062;28;20266;-80
2021/12/03 08:06:13;;;;;;;16.90;6.50;;;;;;;14.64;100.00;62359.44;5074817;28;20239;-79
2021/12/03 08:08:42;;;;;;;22.27;6.73;;;;;;;14.36;100.00;62332.97;5096643;28;20203;-79
2021/12/03 08:11:13;;;;;;;8.83;3.47;;;;;;;14.40;100.00;62334.19;5096130;28;20195;-78
2021/12/03 08:13:43;;;;;;;7.40;3.70;;;;;;;13.27;100.00;62210.69;5096779;28;20735;-77
2021/12/03 08:16:13;;;;;;;4.63;2.30;;;;;;;13.50;100.00;62243.09;5098921;28;20564;-76
2021/12/03 08:18:46;;;;;;;5.57;2.50;;;;;;;14.08;100.00;62305.41;5098484;28;20231;-77
2021/12/03 08:21:13;;;;;;;11.40;2.20;;;;;;;12.74;100.00;62157.41;5096885;28;20235;-78
2021/12/03 08:23:42;;;;;;;2.77;1.50;;;;;;;13.16;100.00;62201.97;5095770;28;20723;-78
2021/12/03 08:26:12;;;;;;;8.63;2.97;;;;;;;12.97;100.00;62191.78;5095173;28;20200;-79
2021/12/03 08:28:41;;;;;;;9.53;2.10;;;;;;;14.03;100.00;62294.91;5076842;28;20216;-77
2021/12/03 08:31:11;;;;;;;9.43;4.77;;;;;;;14.07;100.00;62301.78;5094965;28;20207;-77
2021/12/03 08:33:42;;;;;;;17.90;6.17;;;;;;;14.03;100.00;62294.38;5095110;28;20196;-77
2021/12/03 08:36:13;;;;;;;18.10;8.00;;;;;;;13.53;100.00;62241.19;5095707;28;20227;-79
2021/12/03 08:38:41;;;;;;;8.73;2.17;;;;;;;13.93;100.00;62284.16;5076966;28;20655;-77
2021/12/03 08:41:10;;;;;;;19.00;6.67;;;;;;;14.01;100.00;62292.75;5094702;28;20666;-76
2021/12/03 08:43:41;;;;;;;8.67;2.47;;;;;;;14.00;100.00;62296.28;5095184;28;20232;-79
2021/12/03 08:46:13;;;;;;;8.93;2.90;;;;;;;13.82;100.00;62277.47;5095086;28;20313;-77
2021/12/03 08:48:45;;;;;;;7.90;3.20;;;;;;;13.89;100.00;62279.88;5094686;28;20223;-79
2021/12/03 08:56:59;;;;;;;8.43;2.97;;;;;;;13.83;100.00;62270.84;5070362;28;20222;-78
2021/12/03 08:59:33;;;;;;;23.73;14.00;;;;;;;14.02;100.00;62293.31;5096584;28;20294;-79
2021/12/03 09:02:00;;;;;;;12.70;6.63;;;;;;;12.72;100.00;62159.81;5076645;28;20199;-77
2021/12/03 09:04:29;;;;;;;6.73;2.63;;;;;;;13.07;100.00;62194.34;5093637;28;20284;-78
2021/12/03 09:06:57;;;;;;;11.20;4.73;;;;;;;12.94;100.00;62170.66;5095461;28;20235;-79
2021/12/03 09:09:25;;;;;;;7.23;1.90;;;;;;;13.25;100.00;62211.09;5093660;28;20200;-78
2021/12/03 09:11:57;;;;;;;7.43;2.87;;;;;;;14.11;100.00;62308.63;5095266;28;20702;-78
2021/12/03 09:14:28;;;;;;;17.73;5.00;;;;;;;13.92;100.00;62283.09;5094328;28;20228;-77
2021/12/03 09:17:01;;;;;;;7.27;2.47;;;;;;;14.11;100.00;62303.50;5093376;28;20227;-77
2021/12/03 09:19:33;;;;;;;8.30;2.80;;;;;;;14.10;100.00;62302.44;5093231;28;20619;-78
2021/12/03 09:22:02;;;;;;;5.37;1.53;;;;;;;13.47;100.00;62225.03;5093735;28;20207;-78
2021/12/03 09:24:35;;;;;;;7.30;1.40;;;;;;;13.15;100.00;62205.47;5093852;28;20704;-80
2021/12/03 09:27:04;;;;;;;6.97;2.07;;;;;;;13.21;100.00;62206.81;5093952;28;20227;-78
2021/12/03 09:29:34;;;;;;;8.13;2.03;;;;;;;14.12;100.00;62304.59;5098612;28;20215;-75
2021/12/03 09:32:02;;;;;;;4.73;1.40;;;;;;;14.13;100.00;62310.25;5094397;28;20207;-77
2021/12/03 09:34:31;;;;;;;7.43;1.77;;;;;;;13.95;100.00;62288.88;5094038;28;20676;-78
2021/12/03 09:37:03;;;;;;;8.27;1.70;;;;;;;13.48;100.00;62233.25;5098262;28;20196;-79
2021/12/03 09:39:30;;;;;;;2.83;1.33;;;;;;;13.87;100.00;62280.28;5075540;28;20200;-79
2021/12/03 09:41:59;;;;;;;4.37;2.10;;;;;;;13.94;100.00;62284.69;5094170;28;20242;-77
2021/12/03 09:44:30;;;;;;;2.70;0.93;;;;;;;14.04;100.00;62298.56;5093405;28;20701;-76
2021/12/03 09:46:59;;;;;;;7.17;1.63;;;;;;;14.05;100.00;62299.63;5093792;28;20257;-77
2021/12/03 09:49:34;;;;;;;4.20;2.20;;;;;;;13.24;100.00;62215.16;5093706;28;20237;-77
2021/12/03 09:52:10;;;;;;;2.73;1.30;;;;;;;14.23;100.00;62316.41;5105775;28;20221;-76
2021/12/03 09:54:41;;;;;;;5.43;1.83;;;;;;;13.07;100.00;62192.31;5093503;28;20355;-76
2021/12/03 09:57:10;;;;;;;8.50;2.80;;;;;;;14.17;100.00;62304.28;5093648;28;20230;-79
2021/12/03 10:02:36;;;;;;;6.93;1.70;;;;;;;14.19;100.00;62311.56;5097594;28;20787;-77
2021/12/03 10:13:32;;;;;;;6.37;2.13;;;;;;;14.06;100.00;62297.59;5093355;28;20214;-77
2021/12/03 10:16:15;;;;;;;8.80;1.43;;;;;;;12.94;100.00;62177.81;5092394;28;20207;-77
2021/12/03 10:18:46;;;;;;;4.40;1.53;;;;;;;14.22;100.00;62317.91;5092910;28;20225;-77
2021/12/03 10:27:34;;;;;;;10.70;2.37;;;;;;;14.22;100.00;62315.34;5087278;28;20199;-75
2021/12/03 10:42:28;;;;;;;7.30;1.93;;;;;;;13.75;100.00;62264.28;5050462;28;20251;-77
2021/12/03 10:45:13;;;;;;;17.10;7.40;;;;;;;14.41;100.00;62332.16;5087972;28;20257;-75
2021/12/03 10:47:53;;;;;;;22.90;9.53;;;;;;;14.44;100.00;62337.94;5092448;28;20199;-75
2021/12/03 10:50:42;;;;;;;10.27;2.30;;;;;;;14.52;100.00;62351.66;5092734;28;20199;-77
2021/12/03 13:08:31;;;;;;;8.80;2.33;;;;;;;14.43;100.00;62342.00;5094998;28;20203;-78
2021/12/03 13:14:25;;;;;;;4.67;1.67;;;;;;;14.39;100.00;62335.66;5094034;28;20337;-78
2021/12/03 14:02:18;;;;;;;9.47;1.87;;;;;;;14.27;100.00;62320.16;5067369;28;20234;-77
2021/12/03 14:39:12;;;;;;;4.30;1.07;;;;;;;13.29;100.00;62215.41;5092688;28;20296;-78
2021/12/03 14:42:07;;;;;;;5.53;1.30;;;;;;;14.43;100.00;62336.88;5092514;28;20242;-75
2021/12/03 14:45:08;;;;;;;8.73;1.23;;;;;;;12.89;100.00;62172.97;5093136;28;20231;-77
2021/12/03 14:48:05;;;;;;;5.30;1.13;;;;;;;14.15;100.00;62305.25;5092907;28;20195;-77
2021/12/03 14:50:58;;;;;;;4.37;0.67;;;;;;;14.39;100.00;62333.09;5092368;28;20298;-75
2021/12/03 14:53:54;;;;;;;6.50;1.97;;;;;;;14.47;100.00;62341.16;5092885;28;20209;-75
2021/12/03 14:56:34;;;;;;;9.80;2.37;;;;;;;13.62;100.00;62250.84;5087796;28;20222;-76
2021/12/03 14:59:13;;;;;;;7.73;2.83;;;;;;;14.48;100.00;62347.38;5092833;28;20191;-75
2021/12/03 15:01:49;;;;;;;4.63;1.53;;;;;;;13.53;100.00;62246.84;5092984;28;20196;-77
2021/12/03 15:07:09;;;;;;;5.97;1.93;;;;;;;13.95;100.00;62286.31;5085267;28;20272;-77
2021/12/03 15:09:39;;;;;;;9.60;2.53;;;;;;;14.70;100.00;62368.47;5092647;28;20203;-77
2021/12/03 15:12:37;;;;;;;10.30;3.37;;;;;;;14.74;100.00;62370.19;5095689;28;20280;-75
2021/12/03 15:32:09;;;;;;;4.43;1.73;;;;;;;14.32;100.00;62331.25;5091428;28;20210;-76
2021/12/03 15:34:47;;;;;;;4.17;1.60;;;;;;;14.34;100.00;62328.25;5091487;28;20252;-76
2021/12/03 15:37:39;;;;;;;6.63;1.77;;;;;;;14.20;100.00;62315.75;5091955;28;20199;-77
2021/12/03 15:54:36;;;;;;;10.97;2.07;;;;;;;13.66;100.00;62255.16;5093262;28;20251;-76
2021/12/03 15:57:18;;;;;;;10.27;3.60;;;;;;;13.25;100.00;62216.22;5092779;28;20590;-75
2021/12/03 16:05:44;;;;;;;10.20;4.20;;;;;;;12.24;100.00;62106.28;5091629;28;20230;-76
2021/12/03 16:08:15;;;;;;;16.67;6.47;;;;;;;11.13;100.00;61987.75;5092236;28;20207;-76
2021/12/03 16:10:52;;;;;;;22.27;8.77;;;;;;;11.89;100.00;62071.31;5091285;28;20665;-78
2021/12/03 16:21:52;;;;;;;17.27;8.23;;;;;;;9.20;100.00;61787.78;5093191;28;20337;-75
2021/12/03 16:44:20;;;;;;;12.63;7.43;;;;;;;6.81;100.00;61525.84;5095150;28;20467;-79
2021/12/03 16:46:57;;;;;;;9.47;5.50;;;;;;;8.30;100.00;61683.91;5094926;28;20499;-78
2021/12/03 16:52:28;;;;;;;8.33;5.07;;;;;;;8.30;100.00;61689.00;5095419;28;20436;-77
2021/12/03 16:54:58;;;;;;;14.63;7.20;;;;;;;6.88;100.00;61535.84;5094786;28;20432;-75
2021/12/03 16:57:30;;;;;;;9.73;5.87;;;;;;;7.93;100.00;61649.44;5100607;28;20476;-77
2021/12/03 17:00:02;;;;;;;12.67;6.93;;;;;;;6.38;100.00;61479.97;5095248;28;20444;-77
2021/12/03 17:02:36;;;;;;;17.93;7.20;;;;;;;6.64;100.00;61507.72;5094307;28;20465;-78
2021/12/03 17:13:51;;;;;;;12.20;7.17;;;;;;;7.75;100.00;61630.22;5094739;28;20479;-76
2021/12/03 17:16:44;;;;;;;16.60;8.47;;;;;;;7.53;100.00;61607.78;5094412;28;20522;-76
2021/12/03 17:50:11;;;;;;;3.40;2.33;;;;;;;6.84;100.00;61534.13;5059884;28;20436;-75
2021/12/03 17:58:26;;;;;;;6.20;3.30;;;;;;;6.10;100.00;61455.19;5094083;28;20529;-78
2021/12/03 18:01:04;;;;;;;3.77;2.47;;;;;;;6.68;100.00;61511.97;5095381;28;20533;-78
2021/12/03 18:03:36;;;;;;;3.03;2.23;;;;;;;6.66;100.00;61512.38;5096179;28;20550;-76
2021/12/03 18:15:01;;;;;;;3.10;2.33;;;;;;;6.52;100.00;61497.97;5094967;28;20513;-78